createdAt,value
2023-02-28T00:00:23.144Z,40.50
2023-02-28T00:01:45.042Z,41.10
2023-02-28T00:02:47.318Z,44.30
2023-02-28T00:03:49.867Z,40.70
2023-02-28T00:04:53.325Z,43.90
2023-02-28T00:05:54.951Z,43.10
2023-02-28T00:06:56.550Z,41.80
2023-02-28T00:07:58.082Z,42.50
2023-02-28T00:08:59.522Z,41.50
2023-02-28T00:10:01.539Z,44.00
2023-02-28T00:11:04.743Z,44.10
2023-02-28T00:12:10.411Z,43.10
2023-02-28T00:13:12.166Z,40.90
2023-02-28T00:14:13.658Z,41.70
2023-02-28T00:15:15.356Z,41.00
2023-02-28T00:16:20.630Z,41.60
2023-02-28T00:17:22.662Z,41.80
2023-02-28T00:18:24.124Z,41.40
2023-02-28T00:19:25.539Z,40.20
2023-02-28T00:20:27.379Z,38.70
2023-02-28T00:21:29.157Z,40.50
2023-02-28T00:22:31.136Z,40.20
2023-02-28T00:23:33.737Z,40.90
2023-02-28T00:24:35.342Z,42.50
2023-02-28T00:25:36.788Z,41.30
2023-02-28T00:26:38.406Z,40.80
2023-02-28T00:27:40.952Z,37.70
2023-02-28T00:28:42.855Z,41.50
2023-02-28T00:29:46.847Z,40.30
2023-02-28T00:30:48.486Z,39.00
2023-02-28T00:31:50.286Z,41.30
2023-02-28T00:32:51.840Z,40.00
2023-02-28T00:33:53.299Z,39.70
2023-02-28T00:34:56.539Z,38.60
2023-02-28T00:36:09.084Z,42.80
2023-02-28T00:37:12.560Z,41.80
2023-02-28T00:38:15.021Z,41.20
2023-02-28T00:39:16.684Z,41.40
2023-02-28T00:40:18.201Z,41.60
2023-02-28T00:41:19.777Z,41.70
2023-02-28T00:42:23.379Z,40.70
2023-02-28T00:43:25.050Z,39.50
2023-02-28T00:44:26.677Z,41.50
2023-02-28T00:45:28.458Z,40.40
2023-02-28T00:46:29.993Z,38.00
2023-02-28T00:47:33.545Z,38.70
2023-02-28T00:48:35.741Z,40.20
2023-02-28T00:49:38.486Z,36.70
2023-02-28T00:50:39.920Z,35.60
2023-02-28T00:51:41.360Z,37.20
2023-02-28T00:52:42.893Z,39.30
2023-02-28T00:53:44.533Z,41.20
2023-02-28T00:54:46.074Z,40.10
2023-02-28T00:55:50.910Z,42.50
2023-02-28T00:56:52.464Z,44.40
2023-02-28T00:57:54.235Z,42.50
2023-02-28T00:58:55.852Z,42.20
2023-02-28T00:59:58.307Z,41.30
2023-02-28T01:01:00.002Z,40.20
2023-02-28T01:02:01.580Z,40.90
2023-02-28T01:03:03.299Z,40.30
2023-02-28T01:04:05.307Z,41.30
2023-02-28T01:05:07.334Z,40.40
2023-02-28T01:06:08.895Z,40.60
2023-02-28T01:07:10.356Z,39.20
2023-02-28T01:08:12.578Z,39.00
2023-02-28T01:09:14.317Z,40.50
2023-02-28T01:10:17.266Z,40.40
2023-02-28T01:11:19.064Z,40.50
2023-02-28T01:12:20.614Z,41.30
2023-02-28T01:13:23.512Z,39.60
2023-02-28T01:14:25.273Z,39.80
2023-02-28T01:15:26.887Z,40.10
2023-02-28T01:16:28.544Z,41.30
2023-02-28T01:17:30.061Z,39.80
2023-02-28T01:18:31.798Z,41.30
2023-02-28T01:19:33.777Z,41.10
2023-02-28T01:20:37.556Z,38.10
2023-02-28T01:21:39.034Z,38.80
2023-02-28T01:22:40.846Z,40.50
2023-02-28T01:23:43.905Z,38.60
2023-02-28T01:24:48.010Z,38.20
2023-02-28T01:25:53.127Z,39.50
2023-02-28T01:26:54.683Z,42.80
2023-02-28T01:27:56.754Z,41.00
2023-02-28T01:28:58.379Z,41.00
2023-02-28T01:30:00.743Z,41.10
2023-02-28T01:31:02.565Z,37.70
2023-02-28T01:32:04.445Z,39.60
2023-02-28T01:33:06.006Z,38.00
2023-02-28T01:34:07.665Z,39.50
2023-02-28T01:35:09.316Z,38.70
2023-02-28T01:36:14.003Z,38.70
2023-02-28T01:37:15.519Z,36.00
2023-02-28T01:38:23.323Z,36.70
2023-02-28T01:39:26.842Z,35.60
2023-02-28T01:40:28.548Z,35.90
2023-02-28T01:41:33.191Z,35.80
2023-02-28T01:42:35.756Z,36.60
2023-02-28T01:43:43.722Z,35.50
2023-02-28T01:45:28.680Z,36.30
2023-02-28T01:46:35.608Z,35.80
2023-02-28T01:47:42.011Z,38.20
2023-02-28T01:49:07.512Z,36.70
2023-02-28T01:50:23.267Z,35.50
2023-02-28T01:51:34.656Z,35.80
2023-02-28T01:52:36.799Z,34.60
2023-02-28T01:53:44.657Z,37.40
2023-02-28T01:54:54.456Z,37.00
2023-02-28T01:55:56.632Z,35.50
2023-02-28T01:57:20.707Z,33.10
2023-02-28T01:58:22.871Z,32.00
2023-02-28T01:59:46.818Z,34.00
2023-02-28T02:00:49.113Z,32.20
2023-02-28T02:01:50.756Z,33.00
2023-02-28T02:02:58.417Z,33.90
2023-02-28T02:04:02.842Z,35.20
2023-02-28T02:05:07.798Z,34.70
2023-02-28T02:06:09.289Z,34.40
2023-02-28T02:07:13.122Z,32.60
2023-02-28T02:08:22.106Z,32.10
2023-02-28T02:09:23.839Z,34.20
2023-02-28T02:10:31.847Z,34.60
2023-02-28T02:11:35.684Z,30.80
2023-02-28T02:13:02.605Z,32.20
2023-02-28T02:14:16.086Z,31.30
2023-02-28T02:15:34.393Z,30.90
2023-02-28T02:17:05.298Z,31.00
2023-02-28T02:19:42.228Z,30.90
2023-02-28T02:21:11.336Z,30.80
2023-02-28T02:22:28.816Z,31.30
2023-02-28T02:24:08.918Z,32.40
2023-02-28T02:25:26.192Z,28.60
2023-02-28T02:26:42.794Z,27.70
2023-02-28T02:28:21.305Z,28.40
2023-02-28T02:29:43.073Z,27.60
2023-02-28T02:31:46.085Z,26.40
2023-02-28T02:32:56.737Z,26.40
2023-02-28T02:34:25.428Z,28.40
2023-02-28T02:35:52.859Z,27.50
2023-02-28T02:37:09.228Z,29.50
2023-02-28T02:38:26.906Z,31.10
2023-02-28T02:39:37.187Z,29.50
2023-02-28T02:40:47.331Z,30.30
2023-02-28T02:41:51.804Z,29.00
2023-02-28T02:43:02.482Z,28.30
2023-02-28T02:44:28.588Z,29.80
2023-02-28T02:45:38.256Z,29.00
2023-02-28T02:46:45.133Z,29.00
2023-02-28T02:47:48.428Z,27.50
2023-02-28T02:48:53.473Z,30.50
2023-02-28T02:49:59.636Z,30.30
2023-02-28T02:51:12.082Z,28.70
2023-02-28T02:52:18.923Z,29.20
2023-02-28T02:53:27.318Z,28.70
2023-02-28T02:54:32.481Z,28.10
2023-02-28T02:55:39.728Z,29.20
2023-02-28T02:56:43.741Z,26.60
2023-02-28T02:57:54.929Z,26.00
2023-02-28T02:59:03.333Z,25.80
2023-02-28T03:00:09.117Z,27.10
2023-02-28T03:01:18.133Z,24.90
2023-02-28T03:02:23.527Z,25.80
2023-02-28T03:03:31.867Z,25.50
2023-02-28T03:04:38.908Z,24.40
2023-02-28T03:05:47.746Z,21.80
2023-02-28T03:06:55.204Z,23.60
2023-02-28T03:07:56.812Z,25.10
2023-02-28T03:09:00.010Z,23.50
2023-02-28T03:10:01.688Z,25.40
2023-02-28T03:11:06.346Z,25.30
2023-02-28T03:12:12.871Z,25.90
2023-02-28T03:13:35.363Z,24.70
2023-02-28T03:15:01.744Z,24.10
2023-02-28T03:16:28.119Z,23.90
2023-02-28T03:17:38.742Z,24.30
2023-02-28T03:20:19.635Z,22.40
2023-02-28T03:21:53.438Z,22.90
2023-02-28T03:23:19.890Z,22.20
2023-02-28T03:24:33.509Z,22.30
2023-02-28T03:25:59.654Z,22.10
2023-02-28T03:27:21.624Z,22.60
2023-02-28T03:28:38.006Z,22.30
2023-02-28T03:29:51.717Z,21.80
2023-02-28T03:31:04.153Z,21.30
2023-02-28T03:32:26.200Z,22.10
2023-02-28T03:33:36.509Z,20.90
2023-02-28T03:34:43.787Z,19.80
2023-02-28T03:35:56.382Z,20.60
2023-02-28T03:37:04.751Z,21.20
2023-02-28T03:38:19.825Z,20.10
2023-02-28T03:39:27.314Z,20.90
2023-02-28T03:40:33.420Z,21.00
2023-02-28T03:41:46.753Z,21.40
2023-02-28T03:43:00.244Z,20.70
2023-02-28T03:44:09.590Z,20.90
2023-02-28T03:45:15.282Z,21.30
2023-02-28T03:46:21.679Z,19.70
2023-02-28T03:47:29.838Z,19.40
2023-02-28T03:48:38.849Z,20.10
2023-02-28T03:49:46.044Z,19.60
2023-02-28T03:50:56.061Z,20.30
2023-02-28T03:52:01.811Z,20.30
2023-02-28T03:53:09.591Z,20.60
2023-02-28T03:54:18.440Z,21.60
2023-02-28T03:55:21.262Z,20.80
2023-02-28T03:56:31.557Z,19.70
2023-02-28T03:57:59.409Z,20.30
2023-02-28T03:59:07.344Z,18.90
2023-02-28T04:00:29.198Z,19.20
2023-02-28T04:01:41.919Z,19.30
2023-02-28T04:02:43.872Z,19.60
2023-02-28T04:03:45.631Z,19.50
2023-02-28T04:04:48.654Z,19.70
2023-02-28T04:05:54.968Z,19.30
2023-02-28T04:07:07.943Z,19.00
2023-02-28T04:08:09.382Z,18.90
2023-02-28T04:09:13.594Z,18.10
2023-02-28T04:10:16.746Z,17.30
2023-02-28T04:11:33.390Z,15.40
2023-02-28T04:12:34.914Z,15.30
2023-02-28T04:13:36.446Z,14.60
2023-02-28T04:14:38.020Z,14.90
2023-02-28T04:15:39.609Z,14.40
2023-02-28T04:16:42.485Z,14.30
2023-02-28T04:17:44.172Z,14.30
2023-02-28T04:18:45.652Z,14.10
2023-02-28T04:19:47.361Z,13.10
2023-02-28T04:20:48.996Z,12.80
2023-02-28T04:21:52.248Z,12.80
2023-02-28T04:22:53.818Z,13.90
2023-02-28T04:23:55.838Z,12.70
2023-02-28T04:24:57.351Z,13.10
2023-02-28T04:25:59.285Z,13.20
2023-02-28T04:27:01.514Z,12.10
2023-02-28T04:28:03.094Z,13.10
2023-02-28T04:29:05.945Z,12.90
2023-02-28T04:30:08.100Z,13.10
2023-02-28T04:31:12.249Z,13.10
2023-02-28T04:32:13.920Z,13.40
2023-02-28T04:33:15.455Z,14.70
2023-02-28T04:34:19.240Z,13.70
2023-02-28T04:35:20.674Z,15.10
2023-02-28T04:36:23.565Z,15.50
2023-02-28T04:37:29.020Z,16.00
2023-02-28T04:38:33.513Z,15.30
2023-02-28T04:39:36.670Z,16.10
2023-02-28T04:40:38.395Z,17.20
2023-02-28T04:41:39.994Z,16.70
2023-02-28T04:42:41.508Z,16.50
2023-02-28T04:43:43.151Z,16.20
2023-02-28T04:44:44.644Z,16.60
2023-02-28T04:45:46.303Z,17.70
2023-02-28T04:46:49.179Z,16.80
2023-02-28T04:47:50.698Z,16.90
2023-02-28T04:48:52.230Z,18.20
2023-02-28T04:49:53.917Z,18.20
2023-02-28T04:50:55.648Z,18.00
2023-02-28T04:51:57.461Z,17.50
2023-02-28T04:52:59.070Z,16.00
2023-02-28T04:54:00.588Z,19.40
2023-02-28T04:55:02.133Z,17.20
2023-02-28T04:56:04.870Z,19.30
2023-02-28T04:57:06.525Z,18.90
2023-02-28T04:58:09.998Z,15.60
2023-02-28T04:59:11.651Z,17.50
2023-02-28T05:00:15.628Z,17.50
2023-02-28T05:01:22.201Z,17.70
2023-02-28T05:02:24.145Z,16.70
2023-02-28T05:03:27.776Z,16.30
2023-02-28T05:04:29.615Z,18.30
2023-02-28T05:05:31.223Z,17.90
2023-02-28T05:06:33.552Z,18.10
2023-02-28T05:07:35.533Z,18.10
2023-02-28T05:08:37.107Z,17.10
2023-02-28T05:09:38.672Z,18.10
2023-02-28T05:10:40.182Z,18.20
2023-02-28T05:11:42.118Z,18.00
2023-02-28T05:12:43.802Z,17.90
2023-02-28T05:13:46.176Z,17.60
2023-02-28T05:14:47.707Z,17.90
2023-02-28T05:15:49.739Z,17.30
2023-02-28T05:16:51.448Z,17.10
2023-02-28T05:17:53.198Z,16.60
2023-02-28T05:18:54.891Z,16.30
2023-02-28T05:20:06.460Z,16.00
2023-02-28T05:21:26.663Z,15.80
2023-02-28T05:22:28.690Z,15.70
2023-02-28T05:23:30.432Z,16.20
2023-02-28T05:24:32.352Z,16.70
2023-02-28T05:25:33.887Z,16.40
2023-02-28T05:26:41.275Z,14.70
2023-02-28T05:27:42.975Z,15.40
2023-02-28T05:28:44.503Z,14.90
2023-02-28T05:29:46.081Z,15.70
2023-02-28T05:30:47.760Z,15.00
2023-02-28T05:31:49.669Z,16.00
2023-02-28T05:32:52.073Z,14.80
2023-02-28T05:33:53.852Z,15.00
2023-02-28T05:34:55.396Z,15.30
2023-02-28T05:35:57.000Z,15.90
2023-02-28T05:36:58.604Z,15.70
2023-02-28T05:38:00.284Z,15.40
2023-02-28T05:39:02.031Z,16.50
2023-02-28T05:40:10.510Z,16.30
2023-02-28T05:41:12.106Z,18.20
2023-02-28T05:42:13.589Z,17.50
2023-02-28T05:43:15.619Z,17.70
2023-02-28T05:44:17.092Z,18.70
2023-02-28T05:45:18.580Z,19.10
2023-02-28T05:46:20.348Z,19.20
2023-02-28T05:47:21.820Z,18.60
2023-02-28T05:48:23.660Z,20.00
2023-02-28T05:49:25.358Z,18.00
2023-02-28T05:50:26.936Z,17.50
2023-02-28T05:51:29.174Z,16.90
2023-02-28T05:52:30.862Z,18.40
2023-02-28T05:53:33.337Z,17.10
2023-02-28T05:54:35.381Z,17.40
2023-02-28T05:55:37.819Z,17.30
2023-02-28T05:56:41.012Z,15.10
2023-02-28T05:57:42.800Z,15.50
2023-02-28T05:58:44.436Z,14.90
2023-02-28T05:59:45.952Z,14.50
2023-02-28T06:00:48.160Z,14.40
2023-02-28T06:01:50.097Z,14.80
2023-02-28T06:02:53.678Z,13.70
2023-02-28T06:03:55.360Z,12.90
2023-02-28T06:04:56.947Z,13.70
2023-02-28T06:05:59.105Z,12.40
2023-02-28T06:07:02.253Z,11.40
2023-02-28T06:08:04.997Z,11.60
2023-02-28T06:09:07.195Z,11.50
2023-02-28T06:10:11.001Z,12.50
2023-02-28T06:11:12.970Z,12.60
2023-02-28T06:12:14.620Z,13.20
2023-02-28T06:13:16.236Z,12.70
2023-02-28T06:14:19.397Z,11.80
2023-02-28T06:15:21.314Z,12.30
2023-02-28T06:16:24.246Z,13.20
2023-02-28T06:17:26.089Z,12.30
2023-02-28T06:18:27.843Z,12.50
2023-02-28T06:19:30.560Z,12.40
2023-02-28T06:20:32.357Z,12.80
2023-02-28T06:21:33.922Z,11.60
2023-02-28T06:22:36.652Z,12.00
2023-02-28T06:23:38.234Z,11.70
2023-02-28T06:24:39.853Z,12.50
2023-02-28T06:25:45.879Z,11.70
2023-02-28T06:26:47.745Z,9.60
2023-02-28T06:27:49.659Z,11.00
2023-02-28T06:28:51.453Z,10.40
2023-02-28T06:29:56.356Z,10.60
2023-02-28T06:30:58.368Z,11.10
2023-02-28T06:32:00.175Z,9.10
2023-02-28T06:33:01.750Z,10.00
2023-02-28T06:34:03.351Z,9.90
2023-02-28T06:35:05.241Z,10.00
2023-02-28T06:36:08.080Z,9.20
2023-02-28T06:37:09.679Z,9.80
2023-02-28T06:38:11.214Z,9.20
2023-02-28T06:39:12.733Z,8.60
2023-02-28T06:40:15.030Z,9.20
2023-02-28T06:41:16.724Z,9.60
2023-02-28T06:42:18.313Z,9.20
2023-02-28T06:43:20.009Z,9.00
2023-02-28T06:44:22.129Z,9.20
2023-02-28T06:45:23.675Z,8.50
2023-02-28T06:46:25.275Z,9.20
2023-02-28T06:47:26.912Z,8.60
2023-02-28T06:48:29.005Z,8.70
2023-02-28T06:49:35.200Z,8.30
2023-02-28T06:50:37.576Z,9.50
2023-02-28T06:51:41.927Z,10.40
2023-02-28T06:52:43.442Z,10.20
2023-02-28T06:53:45.180Z,9.40
2023-02-28T06:54:46.955Z,9.10
2023-02-28T06:55:48.413Z,9.60
2023-02-28T06:56:49.993Z,8.30
2023-02-28T06:57:51.506Z,8.40
2023-02-28T06:58:56.466Z,8.20
2023-02-28T07:00:03.615Z,8.80
2023-02-28T07:01:06.380Z,9.00
2023-02-28T07:02:08.568Z,7.80
2023-02-28T07:03:11.261Z,7.80
2023-02-28T07:04:13.429Z,7.50
2023-02-28T07:05:14.902Z,7.60
2023-02-28T07:06:18.222Z,7.50
2023-02-28T07:07:19.865Z,7.20
2023-02-28T07:08:21.242Z,7.20
2023-02-28T07:09:23.340Z,7.40
2023-02-28T07:10:25.093Z,7.20
2023-02-28T07:11:28.192Z,7.40
2023-02-28T07:12:30.363Z,7.20
2023-02-28T07:13:32.247Z,7.40
2023-02-28T07:14:33.672Z,7.50
2023-02-28T07:15:38.476Z,7.00
2023-02-28T07:16:41.612Z,6.80
2023-02-28T07:17:43.995Z,7.00
2023-02-28T07:18:45.634Z,6.70
2023-02-28T07:19:47.367Z,7.10
2023-02-28T07:20:48.948Z,6.70
2023-02-28T07:21:50.406Z,7.30
2023-02-28T07:22:56.581Z,7.00
2023-02-28T07:23:58.246Z,7.10
2023-02-28T07:24:59.722Z,6.80
2023-02-28T07:26:01.488Z,7.10
2023-02-28T07:27:03.309Z,7.00
2023-02-28T07:28:05.069Z,6.90
2023-02-28T07:29:06.539Z,6.90
2023-02-28T07:30:08.532Z,7.10
2023-02-28T07:31:11.144Z,6.80
2023-02-28T07:32:12.797Z,7.20
2023-02-28T07:33:14.433Z,6.80
2023-02-28T07:34:16.066Z,7.10
2023-02-28T07:35:17.693Z,7.10
2023-02-28T07:36:19.117Z,6.70
2023-02-28T07:37:20.835Z,7.60
2023-02-28T07:38:22.442Z,7.50
2023-02-28T07:39:24.112Z,7.70
2023-02-28T07:40:26.345Z,7.40
2023-02-28T07:41:28.134Z,7.30
2023-02-28T07:42:29.838Z,7.60
2023-02-28T07:43:33.153Z,8.00
2023-02-28T07:44:34.750Z,7.10
2023-02-28T07:45:36.387Z,6.90
2023-02-28T07:46:38.735Z,7.30
2023-02-28T07:47:42.017Z,8.20
2023-02-28T07:48:44.636Z,7.30
2023-02-28T07:49:46.102Z,6.60
2023-02-28T07:50:55.853Z,7.30
2023-02-28T07:51:57.425Z,7.10
2023-02-28T07:52:59.722Z,6.80
2023-02-28T07:54:01.385Z,7.00
2023-02-28T07:55:03.239Z,7.90
2023-02-28T07:56:05.358Z,7.20
2023-02-28T07:57:06.910Z,6.80
2023-02-28T07:58:08.438Z,7.70
2023-02-28T07:59:10.127Z,6.90
2023-02-28T08:00:13.961Z,6.70
2023-02-28T08:01:15.830Z,7.30
2023-02-28T08:02:19.034Z,6.50
2023-02-28T08:03:22.197Z,6.70
2023-02-28T08:04:23.835Z,6.60
2023-02-28T08:05:25.475Z,5.90
2023-02-28T08:06:27.010Z,6.50
2023-02-28T08:07:28.520Z,6.10
2023-02-28T08:08:31.547Z,7.60
2023-02-28T08:09:34.393Z,7.00
2023-02-28T08:10:36.468Z,6.30
2023-02-28T08:11:38.018Z,6.40
2023-02-28T08:12:39.465Z,6.50
2023-02-28T08:13:42.611Z,7.20
2023-02-28T08:14:44.158Z,6.10
2023-02-28T08:15:47.700Z,6.00
2023-02-28T08:16:49.247Z,6.20
2023-02-28T08:17:50.701Z,7.40
2023-02-28T08:18:53.154Z,7.20
2023-02-28T08:19:54.846Z,6.90
2023-02-28T08:20:57.762Z,6.40
2023-02-28T08:21:59.172Z,6.80
2023-02-28T08:23:00.668Z,7.20
2023-02-28T08:24:02.227Z,8.10
2023-02-28T08:25:04.237Z,8.20
2023-02-28T08:26:05.799Z,8.10
2023-02-28T08:27:07.232Z,9.80
2023-02-28T08:28:08.819Z,8.90
2023-02-28T08:29:10.340Z,9.10
2023-02-28T08:30:13.476Z,9.20
2023-02-28T08:31:17.246Z,9.10
2023-02-28T08:32:29.540Z,8.60
2023-02-28T08:33:31.756Z,8.80
2023-02-28T08:34:34.070Z,8.20
2023-02-28T08:35:37.480Z,8.40
2023-02-28T08:36:39.999Z,8.90
2023-02-28T08:37:41.543Z,8.40
2023-02-28T08:38:43.104Z,8.60
2023-02-28T08:39:44.679Z,8.00
2023-02-28T08:40:46.292Z,8.00
2023-02-28T08:41:51.151Z,8.50
2023-02-28T08:42:55.037Z,8.70
2023-02-28T08:43:56.660Z,9.10
2023-02-28T08:44:58.341Z,8.80
2023-02-28T08:46:00.043Z,7.80
2023-02-28T08:47:01.628Z,8.10
2023-02-28T08:48:03.511Z,7.90
2023-02-28T08:49:05.043Z,8.50
2023-02-28T08:50:07.559Z,8.10
2023-02-28T08:51:12.511Z,8.10
2023-02-28T08:52:14.045Z,7.60
2023-02-28T08:53:15.757Z,8.70
2023-02-28T08:54:19.657Z,8.20
2023-02-28T08:55:21.303Z,8.50
2023-02-28T08:56:22.870Z,8.30
2023-02-28T08:57:26.531Z,8.30
2023-02-28T08:58:28.570Z,8.60
2023-02-28T08:59:30.279Z,7.90
2023-02-28T09:00:32.444Z,8.80
2023-02-28T09:01:34.319Z,8.30
2023-02-28T09:02:36.222Z,8.00
2023-02-28T09:03:38.248Z,8.30
2023-02-28T09:04:39.675Z,8.10
2023-02-28T09:05:41.323Z,9.40
2023-02-28T09:06:42.874Z,8.60
2023-02-28T09:07:44.449Z,8.90
2023-02-28T09:08:46.193Z,8.90
2023-02-28T09:09:57.995Z,8.80
2023-02-28T09:11:01.635Z,9.50
2023-02-28T09:12:05.431Z,8.90
2023-02-28T09:13:07.295Z,9.80
2023-02-28T09:14:08.829Z,9.50
2023-02-28T09:15:10.958Z,9.90
2023-02-28T09:16:15.447Z,10.10
2023-02-28T09:17:17.760Z,10.70
2023-02-28T09:18:19.740Z,9.80
2023-02-28T09:19:21.176Z,10.10
2023-02-28T09:20:22.658Z,10.10
2023-02-28T09:21:24.400Z,10.20
2023-02-28T09:22:25.840Z,10.00
2023-02-28T09:23:27.381Z,10.10
2023-02-28T09:24:28.902Z,10.40
2023-02-28T09:25:30.342Z,9.80
2023-02-28T09:26:35.395Z,9.80
2023-02-28T09:27:45.915Z,10.50
2023-02-28T09:28:47.548Z,10.00
2023-02-28T09:29:49.058Z,10.40
2023-02-28T09:30:54.315Z,9.90
2023-02-28T09:31:59.010Z,9.50
2023-02-28T09:33:00.654Z,9.50
2023-02-28T09:34:02.329Z,9.00
2023-02-28T09:35:04.631Z,9.50
2023-02-28T09:36:06.736Z,10.00
2023-02-28T09:37:08.213Z,9.80
2023-02-28T09:38:10.555Z,9.60
2023-02-28T09:39:15.566Z,9.60
2023-02-28T09:40:18.382Z,8.20
2023-02-28T09:41:25.974Z,9.20
2023-02-28T09:42:33.929Z,9.50
2023-02-28T09:43:40.495Z,9.10
2023-02-28T09:44:47.170Z,8.70
2023-02-28T09:45:58.942Z,8.80
2023-02-28T09:47:45.529Z,8.40
2023-02-28T09:48:49.768Z,9.00
2023-02-28T09:49:51.443Z,8.50
2023-02-28T09:51:01.130Z,8.60
2023-02-28T09:52:12.317Z,9.00
2023-02-28T09:53:27.494Z,8.70
2023-02-28T09:54:32.393Z,8.50
2023-02-28T09:55:46.571Z,7.80
2023-02-28T09:56:54.395Z,7.90
2023-02-28T09:57:57.859Z,8.10
2023-02-28T09:59:06.097Z,7.80
2023-02-28T10:00:19.221Z,7.70
2023-02-28T10:01:32.384Z,8.50
2023-02-28T10:03:01.007Z,8.00
2023-02-28T10:04:16.495Z,7.70
2023-02-28T10:05:49.984Z,7.30
2023-02-28T10:06:53.274Z,7.50
2023-02-28T10:08:08.611Z,7.30
2023-02-28T10:09:25.149Z,6.70
2023-02-28T10:10:33.202Z,7.00
2023-02-28T10:11:38.050Z,7.40
2023-02-28T10:12:43.723Z,6.90
2023-02-28T10:14:01.755Z,7.00
2023-02-28T10:15:04.535Z,7.20
2023-02-28T10:16:10.897Z,6.70
2023-02-28T10:17:20.226Z,6.40
2023-02-28T10:18:27.772Z,7.10
2023-02-28T10:19:43.291Z,6.50
2023-02-28T10:20:45.511Z,6.60
2023-02-28T10:21:55.584Z,6.50
2023-02-28T10:23:09.009Z,6.70
2023-02-28T10:24:23.653Z,6.60
2023-02-28T10:25:28.794Z,6.90
2023-02-28T10:26:32.706Z,5.80
2023-02-28T10:27:34.568Z,5.80
2023-02-28T10:28:36.503Z,6.00
2023-02-28T10:29:44.086Z,6.70
2023-02-28T10:30:51.916Z,6.30
2023-02-28T10:31:53.644Z,6.60
2023-02-28T10:32:55.672Z,6.80
2023-02-28T10:33:57.422Z,6.70
2023-02-28T10:35:34.173Z,6.70
2023-02-28T10:36:36.368Z,6.90
2023-02-28T10:37:39.522Z,6.20
2023-02-28T10:38:41.368Z,6.50
2023-02-28T10:39:46.216Z,7.30
2023-02-28T10:40:48.419Z,6.50
2023-02-28T10:41:50.253Z,6.90
2023-02-28T10:42:57.278Z,6.30
2023-02-28T10:44:21.686Z,6.50
2023-02-28T10:45:25.064Z,6.30
2023-02-28T10:46:34.562Z,6.60
2023-02-28T10:47:54.016Z,6.70
2023-02-28T10:49:06.982Z,6.70
2023-02-28T10:50:46.861Z,6.60
2023-02-28T10:51:58.728Z,5.80
2023-02-28T10:53:28.292Z,6.20
2023-02-28T10:54:38.082Z,6.60
2023-02-28T10:55:39.808Z,7.00
2023-02-28T10:56:42.075Z,6.60
2023-02-28T10:57:44.134Z,6.10
2023-02-28T10:58:51.529Z,5.60
2023-02-28T11:00:05.977Z,5.20
2023-02-28T11:01:14.498Z,5.30
2023-02-28T11:03:36.061Z,4.90
2023-02-28T11:04:39.789Z,5.30
2023-02-28T11:05:42.852Z,5.70
2023-02-28T11:06:44.887Z,5.00
2023-02-28T11:07:53.737Z,5.50
2023-02-28T11:09:00.837Z,5.10
2023-02-28T11:10:04.562Z,6.30
2023-02-28T11:11:08.186Z,5.70
2023-02-28T11:12:23.678Z,5.20
2023-02-28T11:13:32.306Z,5.40
2023-02-28T11:14:48.336Z,4.60
2023-02-28T11:15:56.689Z,5.90
2023-02-28T11:17:12.158Z,5.10
2023-02-28T11:18:13.841Z,5.10
2023-02-28T11:19:26.119Z,5.00
2023-02-28T11:20:32.032Z,5.20
2023-02-28T11:21:40.554Z,5.00
2023-02-28T11:22:46.634Z,5.00
2023-02-28T11:23:51.553Z,5.20
2023-02-28T11:24:55.416Z,5.10
2023-02-28T11:26:00.281Z,5.40
2023-02-28T11:27:02.348Z,5.00
2023-02-28T11:28:36.072Z,5.00
2023-02-28T11:29:47.605Z,5.20
2023-02-28T11:31:12.088Z,5.30
2023-02-28T11:32:17.053Z,5.00
2023-02-28T11:33:32.230Z,4.70
2023-02-28T11:34:33.905Z,4.90
2023-02-28T11:35:39.831Z,4.30
2023-02-28T11:36:44.882Z,4.10
2023-02-28T11:37:46.496Z,4.10
2023-02-28T11:38:49.971Z,4.50
2023-02-28T11:39:51.516Z,3.90
2023-02-28T11:40:56.113Z,3.90
2023-02-28T11:42:06.657Z,3.50
2023-02-28T11:45:01.621Z,3.60
2023-02-28T11:46:06.107Z,4.00
2023-02-28T11:47:17.691Z,3.80
2023-02-28T11:48:35.101Z,3.60
2023-02-28T11:50:04.322Z,3.70
2023-02-28T11:51:32.665Z,3.30
2023-02-28T11:52:45.853Z,3.70
2023-02-28T11:53:50.191Z,3.80
2023-02-28T11:55:37.068Z,3.30
2023-02-28T11:56:47.227Z,3.90
2023-02-28T11:58:03.508Z,3.50
2023-02-28T11:59:36.296Z,4.10
2023-02-28T12:01:02.181Z,3.90
2023-02-28T12:02:09.536Z,4.10
2023-02-28T12:03:29.372Z,3.80
2023-02-28T12:04:37.033Z,3.80
2023-02-28T12:05:46.575Z,3.80
2023-02-28T12:07:04.074Z,4.00
2023-02-28T12:08:16.369Z,4.10
2023-02-28T12:09:36.468Z,3.90
2023-02-28T12:10:52.720Z,4.00
2023-02-28T12:12:01.737Z,4.10
2023-02-28T12:13:24.650Z,4.20
2023-02-28T12:14:55.458Z,4.10
2023-02-28T12:16:12.547Z,4.00
2023-02-28T12:17:23.083Z,4.20
2023-02-28T12:19:46.373Z,3.70
2023-02-28T12:20:57.218Z,4.60
2023-02-28T12:22:14.181Z,3.80
2023-02-28T12:23:34.804Z,4.10
2023-02-28T12:24:43.373Z,4.30
2023-02-28T12:26:02.721Z,4.20
2023-02-28T12:27:11.617Z,4.20
2023-02-28T12:28:16.505Z,4.00
2023-02-28T12:29:26.353Z,3.90
2023-02-28T12:30:34.207Z,4.00
2023-02-28T12:31:42.157Z,4.10
2023-02-28T12:32:51.858Z,3.80
2023-02-28T12:34:01.055Z,3.90
2023-02-28T12:35:32.311Z,3.80
2023-02-28T12:36:35.988Z,3.60
2023-02-28T12:37:43.359Z,4.00
2023-02-28T12:38:49.899Z,3.70
2023-02-28T12:40:00.067Z,3.90
2023-02-28T12:41:17.043Z,3.30
2023-02-28T12:42:28.926Z,3.70
2023-02-28T12:43:38.342Z,3.90
2023-02-28T12:44:46.966Z,3.90
2023-02-28T12:46:02.938Z,3.60
2023-02-28T12:47:10.199Z,3.40
2023-02-28T12:48:19.994Z,3.10
2023-02-28T12:50:22.774Z,3.40
2023-02-28T12:51:26.241Z,4.10
2023-02-28T12:52:53.945Z,3.70
2023-02-28T12:54:05.286Z,3.80
2023-02-28T12:55:34.320Z,3.40
2023-02-28T12:57:04.264Z,3.40
2023-02-28T12:58:16.918Z,3.40
2023-02-28T12:59:30.412Z,3.20
2023-02-28T13:00:38.559Z,3.90
2023-02-28T13:01:54.487Z,3.30
2023-02-28T13:03:25.756Z,3.40
2023-02-28T13:05:04.855Z,3.00
2023-02-28T13:06:34.858Z,3.00
2023-02-28T13:08:06.961Z,3.00
2023-02-28T13:09:14.396Z,3.00
2023-02-28T13:10:16.978Z,3.10
2023-02-28T13:11:42.084Z,2.90
2023-02-28T13:12:52.267Z,2.70
2023-02-28T13:14:02.577Z,3.20
2023-02-28T13:15:17.110Z,3.20
2023-02-28T13:16:18.663Z,3.50
2023-02-28T13:17:22.034Z,3.10
2023-02-28T13:18:43.062Z,3.70
2023-02-28T13:19:52.790Z,3.40
2023-02-28T13:20:54.426Z,3.40
2023-02-28T13:21:56.807Z,4.20
2023-02-28T13:22:58.516Z,3.80
2023-02-28T13:24:02.856Z,3.30
2023-02-28T13:25:33.852Z,3.20
2023-02-28T13:26:38.758Z,3.20
2023-02-28T13:27:42.102Z,3.50
2023-02-28T13:28:54.107Z,2.90
2023-02-28T13:29:55.645Z,3.40
2023-02-28T13:30:58.927Z,3.00
2023-02-28T13:32:06.401Z,3.10
2023-02-28T13:33:27.344Z,3.40
2023-02-28T13:34:28.821Z,3.60
2023-02-28T13:35:43.598Z,3.10
2023-02-28T13:36:45.315Z,3.10
2023-02-28T13:37:50.320Z,2.90
2023-02-28T13:38:55.644Z,3.30
2023-02-28T13:40:07.307Z,3.10
2023-02-28T13:41:41.832Z,3.30
2023-02-28T13:42:44.654Z,3.20
2023-02-28T13:44:07.285Z,3.20
2023-02-28T13:45:11.827Z,3.30
2023-02-28T13:46:14.038Z,3.20
2023-02-28T13:47:28.241Z,2.80
2023-02-28T13:48:30.436Z,3.60
2023-02-28T13:49:34.286Z,3.20
2023-02-28T13:50:38.193Z,3.40
2023-02-28T13:51:47.077Z,3.40
2023-02-28T13:53:17.337Z,3.50
2023-02-28T13:55:03.686Z,3.70
2023-02-28T13:56:33.344Z,3.90
2023-02-28T13:58:01.148Z,3.50
2023-02-28T13:59:19.697Z,3.60
2023-02-28T14:00:30.815Z,4.10
2023-02-28T14:01:51.489Z,4.10
2023-02-28T14:03:11.612Z,3.60
2023-02-28T14:04:32.576Z,3.80
2023-02-28T14:05:36.640Z,3.90
2023-02-28T14:06:40.010Z,4.10
2023-02-28T14:07:47.935Z,4.10
2023-02-28T14:08:55.618Z,3.80
2023-02-28T14:10:05.664Z,4.30
2023-02-28T14:11:25.263Z,4.00
2023-02-28T14:12:56.494Z,4.20
2023-02-28T14:13:59.194Z,4.70
2023-02-28T14:15:00.709Z,4.10
2023-02-28T14:16:04.174Z,3.70
2023-02-28T14:17:14.006Z,4.50
2023-02-28T14:18:32.244Z,4.20
2023-02-28T14:19:38.084Z,4.10
2023-02-28T14:20:40.892Z,4.10
2023-02-28T14:22:01.742Z,4.30
2023-02-28T14:23:09.128Z,4.10
2023-02-28T14:24:32.864Z,4.20
2023-02-28T14:25:56.731Z,4.50
2023-02-28T14:27:04.589Z,4.00
2023-02-28T14:28:35.810Z,4.20
2023-02-28T14:30:12.486Z,4.30
2023-02-28T14:31:59.219Z,4.00
2023-02-28T14:33:22.515Z,4.50
2023-02-28T14:34:46.227Z,4.20
2023-02-28T14:36:09.796Z,4.20
2023-02-28T14:37:24.207Z,4.30
2023-02-28T14:38:30.342Z,4.10
2023-02-28T14:39:33.084Z,4.50
2023-02-28T14:40:35.732Z,4.60
2023-02-28T14:41:40.417Z,4.80
2023-02-28T14:42:48.489Z,4.80
2023-02-28T14:43:56.598Z,4.30
2023-02-28T14:44:58.408Z,4.70
2023-02-28T14:46:02.671Z,4.90
2023-02-28T14:47:09.228Z,4.80